sensor_id;sensor_type;location;lat;lon;timestamp;P1;durP1;ratioP1;P2;durP2;ratioP2
2624;SDS011;1322;53.256;10.386;2023-07-02T00:01:46;5.47;;;3.00;;
2624;SDS011;1322;53.256;10.386;2023-07-02T00:04:12;4.63;;;3.13;;
2624;SDS011;1322;53.256;10.386;2023-07-02T00:06:42;8.23;;;3.60;;
2624;SDS011;1322;53.256;10.386;2023-07-02T00:09:09;6.20;;;3.80;;
2624;SDS011;1322;53.256;10.386;2023-07-02T00:11:38;3.40;;;2.87;;
2624;SDS011;1322;53.256;10.386;2023-07-02T00:14:05;9.30;;;5.20;;
2624;SDS011;1322;53.256;10.386;2023-07-02T00:16:32;5.47;;;3.77;;
2624;SDS011;1322;53.256;10.386;2023-07-02T00:18:58;4.23;;;3.00;;
2624;SDS011;1322;53.256;10.386;2023-07-02T00:21:25;5.87;;;3.50;;
2624;SDS011;1322;53.256;10.386;2023-07-02T00:23:53;4.93;;;3.33;;
2624;SDS011;1322;53.256;10.386;2023-07-02T00:26:22;6.33;;;4.00;;
2624;SDS011;1322;53.256;10.386;2023-07-02T00:28:49;5.07;;;3.20;;
2624;SDS011;1322;53.256;10.386;2023-07-02T00:31:15;7.43;;;3.13;;
2624;SDS011;1322;53.256;10.386;2023-07-02T00:33:41;4.63;;;3.37;;
2624;SDS011;1322;53.256;10.386;2023-07-02T00:36:06;7.13;;;3.10;;
2624;SDS011;1322;53.256;10.386;2023-07-02T00:38:32;5.60;;;3.30;;
2624;SDS011;1322;53.256;10.386;2023-07-02T00:40:57;7.67;;;3.50;;
2624;SDS011;1322;53.256;10.386;2023-07-02T00:43:23;6.43;;;3.60;;
2624;SDS011;1322;53.256;10.386;2023-07-02T00:45:49;4.60;;;3.37;;
2624;SDS011;1322;53.256;10.386;2023-07-02T00:48:15;5.13;;;3.27;;
2624;SDS011;1322;53.256;10.386;2023-07-02T00:50:41;6.67;;;3.53;;
2624;SDS011;1322;53.256;10.386;2023-07-02T00:53:06;6.20;;;4.50;;
2624;SDS011;1322;53.256;10.386;2023-07-02T00:55:32;7.27;;;3.33;;
2624;SDS011;1322;53.256;10.386;2023-07-02T00:57:58;7.50;;;3.40;;
2624;SDS011;1322;53.256;10.386;2023-07-02T01:00:23;7.13;;;3.47;;
2624;SDS011;1322;53.256;10.386;2023-07-02T01:02:58;5.57;;;2.93;;
2624;SDS011;1322;53.256;10.386;2023-07-02T01:05:27;7.43;;;3.43;;
2624;SDS011;1322;53.256;10.386;2023-07-02T01:08:00;7.93;;;3.73;;
2624;SDS011;1322;53.256;10.386;2023-07-02T01:10:29;11.67;;;4.30;;
2624;SDS011;1322;53.256;10.386;2023-07-02T01:12:56;6.40;;;3.03;;
2624;SDS011;1322;53.256;10.386;2023-07-02T01:15:25;4.70;;;3.00;;
2624;SDS011;1322;53.256;10.386;2023-07-02T01:17:51;3.93;;;2.90;;
2624;SDS011;1322;53.256;10.386;2023-07-02T01:20:17;7.07;;;3.43;;
2624;SDS011;1322;53.256;10.386;2023-07-02T01:22:45;15.10;;;4.10;;
2624;SDS011;1322;53.256;10.386;2023-07-02T01:25:14;4.27;;;3.43;;
2624;SDS011;1322;53.256;10.386;2023-07-02T01:27:40;4.03;;;3.10;;
2624;SDS011;1322;53.256;10.386;2023-07-02T01:30:06;8.07;;;3.00;;
2624;SDS011;1322;53.256;10.386;2023-07-02T01:32:32;4.60;;;2.53;;
2624;SDS011;1322;53.256;10.386;2023-07-02T01:34:58;4.80;;;3.53;;
2624;SDS011;1322;53.256;10.386;2023-07-02T01:37:23;5.73;;;3.87;;
2624;SDS011;1322;53.256;10.386;2023-07-02T01:39:49;6.70;;;3.97;;
2624;SDS011;1322;53.256;10.386;2023-07-02T01:42:16;5.60;;;3.13;;
2624;SDS011;1322;53.256;10.386;2023-07-02T01:44:43;7.07;;;3.30;;
2624;SDS011;1322;53.256;10.386;2023-07-02T01:47:10;3.70;;;3.00;;
2624;SDS011;1322;53.256;10.386;2023-07-02T01:49:36;4.37;;;3.50;;
2624;SDS011;1322;53.256;10.386;2023-07-02T01:52:03;4.63;;;3.20;;
2624;SDS011;1322;53.256;10.386;2023-07-02T01:54:29;6.23;;;3.97;;
2624;SDS011;1322;53.256;10.386;2023-07-02T01:56:57;5.27;;;3.10;;
2624;SDS011;1322;53.256;10.386;2023-07-02T01:59:22;4.80;;;3.43;;
2624;SDS011;1322;53.256;10.386;2023-07-02T02:01:48;4.77;;;3.20;;
2624;SDS011;1322;53.256;10.386;2023-07-02T02:04:14;8.13;;;3.30;;
2624;SDS011;1322;53.256;10.386;2023-07-02T02:06:40;6.30;;;2.83;;
2624;SDS011;1322;53.256;10.386;2023-07-02T02:09:06;4.27;;;3.37;;
2624;SDS011;1322;53.256;10.386;2023-07-02T02:11:34;5.60;;;3.50;;
2624;SDS011;1322;53.256;10.386;2023-07-02T02:14:03;7.03;;;3.43;;
2624;SDS011;1322;53.256;10.386;2023-07-02T02:16:29;6.20;;;3.27;;
2624;SDS011;1322;53.256;10.386;2023-07-02T02:18:54;7.80;;;3.23;;
2624;SDS011;1322;53.256;10.386;2023-07-02T02:21:20;5.80;;;3.47;;
2624;SDS011;1322;53.256;10.386;2023-07-02T02:23:46;4.60;;;3.63;;
2624;SDS011;1322;53.256;10.386;2023-07-02T02:26:13;4.80;;;4.00;;
2624;SDS011;1322;53.256;10.386;2023-07-02T02:28:39;7.60;;;3.27;;
2624;SDS011;1322;53.256;10.386;2023-07-02T02:31:04;4.67;;;3.93;;
2624;SDS011;1322;53.256;10.386;2023-07-02T02:33:30;7.70;;;4.30;;
2624;SDS011;1322;53.256;10.386;2023-07-02T02:35:57;4.40;;;2.97;;
2624;SDS011;1322;53.256;10.386;2023-07-02T02:38:22;8.63;;;3.30;;
2624;SDS011;1322;53.256;10.386;2023-07-02T02:40:48;11.70;;;5.87;;
2624;SDS011;1322;53.256;10.386;2023-07-02T02:43:14;3.90;;;3.17;;
2624;SDS011;1322;53.256;10.386;2023-07-02T02:45:41;10.97;;;3.80;;
2624;SDS011;1322;53.256;10.386;2023-07-02T02:48:07;4.33;;;3.30;;
2624;SDS011;1322;53.256;10.386;2023-07-02T02:50:33;4.53;;;3.20;;
2624;SDS011;1322;53.256;10.386;2023-07-02T02:52:58;6.00;;;3.30;;
2624;SDS011;1322;53.256;10.386;2023-07-02T02:55:24;5.37;;;3.83;;
2624;SDS011;1322;53.256;10.386;2023-07-02T02:57:50;5.60;;;3.40;;
2624;SDS011;1322;53.256;10.386;2023-07-02T03:00:15;7.30;;;3.70;;
2624;SDS011;1322;53.256;10.386;2023-07-02T03:02:41;10.20;;;4.00;;
2624;SDS011;1322;53.256;10.386;2023-07-02T03:05:07;6.30;;;3.10;;
2624;SDS011;1322;53.256;10.386;2023-07-02T03:07:33;6.80;;;3.53;;
2624;SDS011;1322;53.256;10.386;2023-07-02T03:10:00;5.90;;;3.17;;
2624;SDS011;1322;53.256;10.386;2023-07-02T03:12:26;7.57;;;3.50;;
2624;SDS011;1322;53.256;10.386;2023-07-02T03:14:52;3.50;;;3.10;;
2624;SDS011;1322;53.256;10.386;2023-07-02T03:17:22;7.43;;;4.03;;
2624;SDS011;1322;53.256;10.386;2023-07-02T03:19:48;4.30;;;3.50;;
2624;SDS011;1322;53.256;10.386;2023-07-02T03:22:13;7.63;;;3.83;;
2624;SDS011;1322;53.256;10.386;2023-07-02T03:24:39;7.30;;;3.50;;
2624;SDS011;1322;53.256;10.386;2023-07-02T03:27:05;23.10;;;4.73;;
2624;SDS011;1322;53.256;10.386;2023-07-02T03:29:31;5.90;;;3.10;;
2624;SDS011;1322;53.256;10.386;2023-07-02T03:31:58;5.97;;;3.10;;
2624;SDS011;1322;53.256;10.386;2023-07-02T03:34:24;7.43;;;4.63;;
2624;SDS011;1322;53.256;10.386;2023-07-02T03:36:50;4.83;;;3.80;;
2624;SDS011;1322;53.256;10.386;2023-07-02T03:39:16;7.00;;;4.10;;
2624;SDS011;1322;53.256;10.386;2023-07-02T03:41:42;7.17;;;3.67;;
2624;SDS011;1322;53.256;10.386;2023-07-02T03:44:08;5.63;;;3.60;;
2624;SDS011;1322;53.256;10.386;2023-07-02T03:46:34;6.40;;;3.83;;
2624;SDS011;1322;53.256;10.386;2023-07-02T03:49:00;6.33;;;3.60;;
2624;SDS011;1322;53.256;10.386;2023-07-02T03:51:26;9.90;;;4.43;;
2624;SDS011;1322;53.256;10.386;2023-07-02T03:53:51;7.20;;;4.20;;
2624;SDS011;1322;53.256;10.386;2023-07-02T03:56:17;8.07;;;3.47;;
2624;SDS011;1322;53.256;10.386;2023-07-02T03:58:42;5.43;;;3.87;;
2624;SDS011;1322;53.256;10.386;2023-07-02T04:01:08;9.10;;;3.93;;
2624;SDS011;1322;53.256;10.386;2023-07-02T04:03:34;6.07;;;3.70;;
2624;SDS011;1322;53.256;10.386;2023-07-02T04:05:59;10.43;;;3.87;;
2624;SDS011;1322;53.256;10.386;2023-07-02T04:08:25;10.93;;;4.83;;
2624;SDS011;1322;53.256;10.386;2023-07-02T04:10:53;8.03;;;3.50;;
2624;SDS011;1322;53.256;10.386;2023-07-02T04:13:19;6.33;;;3.90;;
2624;SDS011;1322;53.256;10.386;2023-07-02T04:15:44;6.47;;;3.83;;
2624;SDS011;1322;53.256;10.386;2023-07-02T04:18:10;6.70;;;4.53;;
2624;SDS011;1322;53.256;10.386;2023-07-02T04:20:36;8.10;;;3.97;;
2624;SDS011;1322;53.256;10.386;2023-07-02T04:23:03;5.70;;;3.90;;
2624;SDS011;1322;53.256;10.386;2023-07-02T04:25:29;6.57;;;4.23;;
2624;SDS011;1322;53.256;10.386;2023-07-02T04:27:55;7.43;;;4.50;;
2624;SDS011;1322;53.256;10.386;2023-07-02T04:30:22;7.00;;;4.13;;
2624;SDS011;1322;53.256;10.386;2023-07-02T04:32:47;7.53;;;4.07;;
2624;SDS011;1322;53.256;10.386;2023-07-02T04:35:13;7.13;;;4.83;;
2624;SDS011;1322;53.256;10.386;2023-07-02T04:37:39;5.23;;;4.47;;
2624;SDS011;1322;53.256;10.386;2023-07-02T04:40:05;6.90;;;4.80;;
2624;SDS011;1322;53.256;10.386;2023-07-02T04:42:37;8.07;;;4.73;;
2624;SDS011;1322;53.256;10.386;2023-07-02T04:45:04;7.90;;;4.50;;
2624;SDS011;1322;53.256;10.386;2023-07-02T04:47:30;8.93;;;4.10;;
2624;SDS011;1322;53.256;10.386;2023-07-02T04:49:57;8.77;;;4.30;;
2624;SDS011;1322;53.256;10.386;2023-07-02T04:52:22;9.83;;;5.30;;
2624;SDS011;1322;53.256;10.386;2023-07-02T04:54:48;6.40;;;4.70;;
2624;SDS011;1322;53.256;10.386;2023-07-02T04:57:14;11.70;;;5.40;;
2624;SDS011;1322;53.256;10.386;2023-07-02T04:59:43;7.53;;;4.60;;
2624;SDS011;1322;53.256;10.386;2023-07-02T05:02:08;10.30;;;4.50;;
2624;SDS011;1322;53.256;10.386;2023-07-02T05:04:35;11.93;;;4.80;;
2624;SDS011;1322;53.256;10.386;2023-07-02T05:07:02;9.53;;;4.50;;
2624;SDS011;1322;53.256;10.386;2023-07-02T05:09:29;8.30;;;4.30;;
2624;SDS011;1322;53.256;10.386;2023-07-02T05:11:55;10.20;;;4.73;;
2624;SDS011;1322;53.256;10.386;2023-07-02T05:14:21;9.17;;;4.63;;
2624;SDS011;1322;53.256;10.386;2023-07-02T05:16:47;6.83;;;3.83;;
2624;SDS011;1322;53.256;10.386;2023-07-02T05:19:13;11.10;;;5.23;;
2624;SDS011;1322;53.256;10.386;2023-07-02T05:21:39;13.03;;;5.97;;
2624;SDS011;1322;53.256;10.386;2023-07-02T05:24:05;11.70;;;5.57;;
2624;SDS011;1322;53.256;10.386;2023-07-02T05:26:30;12.70;;;5.30;;
2624;SDS011;1322;53.256;10.386;2023-07-02T05:28:56;9.77;;;5.23;;
2624;SDS011;1322;53.256;10.386;2023-07-02T05:31:22;10.37;;;5.43;;
2624;SDS011;1322;53.256;10.386;2023-07-02T05:33:47;9.70;;;4.13;;
2624;SDS011;1322;53.256;10.386;2023-07-02T05:36:13;11.23;;;5.50;;
2624;SDS011;1322;53.256;10.386;2023-07-02T05:38:39;13.87;;;5.73;;
2624;SDS011;1322;53.256;10.386;2023-07-02T05:41:04;10.47;;;5.43;;
2624;SDS011;1322;53.256;10.386;2023-07-02T05:43:30;8.60;;;5.00;;
2624;SDS011;1322;53.256;10.386;2023-07-02T05:45:57;13.43;;;6.63;;
2624;SDS011;1322;53.256;10.386;2023-07-02T05:48:26;9.80;;;6.63;;
2624;SDS011;1322;53.256;10.386;2023-07-02T05:50:52;9.57;;;5.23;;
2624;SDS011;1322;53.256;10.386;2023-07-02T05:53:18;10.37;;;5.60;;
2624;SDS011;1322;53.256;10.386;2023-07-02T05:55:44;14.13;;;5.03;;
2624;SDS011;1322;53.256;10.386;2023-07-02T05:58:10;14.80;;;5.70;;
2624;SDS011;1322;53.256;10.386;2023-07-02T06:00:35;11.47;;;6.47;;
2624;SDS011;1322;53.256;10.386;2023-07-02T06:03:01;14.00;;;6.63;;
2624;SDS011;1322;53.256;10.386;2023-07-02T06:05:27;12.70;;;6.37;;
2624;SDS011;1322;53.256;10.386;2023-07-02T06:07:53;13.63;;;5.23;;
2624;SDS011;1322;53.256;10.386;2023-07-02T06:10:18;9.23;;;5.30;;
2624;SDS011;1322;53.256;10.386;2023-07-02T06:12:44;12.73;;;5.83;;
2624;SDS011;1322;53.256;10.386;2023-07-02T06:15:10;10.87;;;5.27;;
2624;SDS011;1322;53.256;10.386;2023-07-02T06:17:36;18.37;;;6.10;;
2624;SDS011;1322;53.256;10.386;2023-07-02T06:20:05;13.07;;;5.50;;
2624;SDS011;1322;53.256;10.386;2023-07-02T06:22:31;14.60;;;5.90;;
2624;SDS011;1322;53.256;10.386;2023-07-02T06:24:57;14.43;;;6.20;;
2624;SDS011;1322;53.256;10.386;2023-07-02T06:27:22;13.90;;;5.93;;
2624;SDS011;1322;53.256;10.386;2023-07-02T06:29:48;13.40;;;6.97;;
2624;SDS011;1322;53.256;10.386;2023-07-02T06:32:15;14.07;;;5.80;;
2624;SDS011;1322;53.256;10.386;2023-07-02T06:34:41;14.33;;;7.03;;
2624;SDS011;1322;53.256;10.386;2023-07-02T06:37:06;17.17;;;5.97;;
2624;SDS011;1322;53.256;10.386;2023-07-02T06:39:32;15.13;;;6.63;;
2624;SDS011;1322;53.256;10.386;2023-07-02T06:41:58;9.40;;;5.17;;
2624;SDS011;1322;53.256;10.386;2023-07-02T06:44:23;15.57;;;5.80;;
2624;SDS011;1322;53.256;10.386;2023-07-02T06:46:49;15.70;;;6.00;;
2624;SDS011;1322;53.256;10.386;2023-07-02T06:49:14;18.67;;;6.30;;
2624;SDS011;1322;53.256;10.386;2023-07-02T06:51:40;17.60;;;6.90;;
2624;SDS011;1322;53.256;10.386;2023-07-02T06:54:06;19.30;;;6.60;;
2624;SDS011;1322;53.256;10.386;2023-07-02T06:56:32;17.50;;;7.10;;
2624;SDS011;1322;53.256;10.386;2023-07-02T06:58:59;18.83;;;7.60;;
2624;SDS011;1322;53.256;10.386;2023-07-02T07:01:25;10.30;;;6.03;;
2624;SDS011;1322;53.256;10.386;2023-07-02T07:03:50;14.80;;;7.47;;
2624;SDS011;1322;53.256;10.386;2023-07-02T07:06:16;16.00;;;7.63;;
2624;SDS011;1322;53.256;10.386;2023-07-02T07:08:41;11.87;;;6.40;;
2624;SDS011;1322;53.256;10.386;2023-07-02T07:11:07;19.70;;;9.57;;
2624;SDS011;1322;53.256;10.386;2023-07-02T07:13:33;12.50;;;6.77;;
2624;SDS011;1322;53.256;10.386;2023-07-02T07:15:58;20.80;;;7.17;;
2624;SDS011;1322;53.256;10.386;2023-07-02T07:18:24;16.00;;;6.17;;
2624;SDS011;1322;53.256;10.386;2023-07-02T07:20:50;11.77;;;6.23;;
2624;SDS011;1322;53.256;10.386;2023-07-02T07:23:17;15.33;;;6.67;;
2624;SDS011;1322;53.256;10.386;2023-07-02T07:25:43;16.70;;;6.67;;
2624;SDS011;1322;53.256;10.386;2023-07-02T07:28:09;19.30;;;7.30;;
2624;SDS011;1322;53.256;10.386;2023-07-02T07:30:40;16.70;;;7.00;;
2624;SDS011;1322;53.256;10.386;2023-07-02T07:33:09;12.10;;;6.83;;
2624;SDS011;1322;53.256;10.386;2023-07-02T07:35:35;15.30;;;7.40;;
2624;SDS011;1322;53.256;10.386;2023-07-02T07:38:01;14.93;;;7.00;;
2624;SDS011;1322;53.256;10.386;2023-07-02T07:40:27;20.83;;;7.80;;
2624;SDS011;1322;53.256;10.386;2023-07-02T07:42:53;17.97;;;7.70;;
2624;SDS011;1322;53.256;10.386;2023-07-02T07:45:19;11.50;;;6.30;;
2624;SDS011;1322;53.256;10.386;2023-07-02T07:47:45;20.27;;;7.83;;
2624;SDS011;1322;53.256;10.386;2023-07-02T07:50:10;13.00;;;6.57;;
2624;SDS011;1322;53.256;10.386;2023-07-02T07:52:37;17.57;;;7.17;;
2624;SDS011;1322;53.256;10.386;2023-07-02T07:55:04;13.93;;;6.67;;
2624;SDS011;1322;53.256;10.386;2023-07-02T07:57:30;12.80;;;7.40;;
2624;SDS011;1322;53.256;10.386;2023-07-02T07:59:56;11.47;;;6.40;;
2624;SDS011;1322;53.256;10.386;2023-07-02T08:02:21;12.53;;;7.00;;
2624;SDS011;1322;53.256;10.386;2023-07-02T08:04:48;19.27;;;7.80;;
2624;SDS011;1322;53.256;10.386;2023-07-02T08:07:14;19.67;;;6.80;;
2624;SDS011;1322;53.256;10.386;2023-07-02T08:09:40;13.17;;;7.00;;
2624;SDS011;1322;53.256;10.386;2023-07-02T08:12:05;22.47;;;7.40;;
2624;SDS011;1322;53.256;10.386;2023-07-02T08:14:31;11.60;;;6.40;;
2624;SDS011;1322;53.256;10.386;2023-07-02T08:16:57;14.07;;;7.20;;
2624;SDS011;1322;53.256;10.386;2023-07-02T08:19:22;15.27;;;7.80;;
2624;SDS011;1322;53.256;10.386;2023-07-02T08:21:48;18.67;;;10.80;;
2624;SDS011;1322;53.256;10.386;2023-07-02T08:24:14;19.63;;;9.90;;
2624;SDS011;1322;53.256;10.386;2023-07-02T08:26:39;10.63;;;6.40;;
2624;SDS011;1322;53.256;10.386;2023-07-02T08:29:05;12.77;;;6.23;;
2624;SDS011;1322;53.256;10.386;2023-07-02T08:31:30;8.73;;;5.90;;
2624;SDS011;1322;53.256;10.386;2023-07-02T08:33:56;24.27;;;7.47;;
2624;SDS011;1322;53.256;10.386;2023-07-02T08:36:22;11.60;;;5.80;;
2624;SDS011;1322;53.256;10.386;2023-07-02T08:38:47;23.37;;;7.40;;
2624;SDS011;1322;53.256;10.386;2023-07-02T08:41:16;13.33;;;6.20;;
2624;SDS011;1322;53.256;10.386;2023-07-02T08:43:42;12.93;;;6.50;;
2624;SDS011;1322;53.256;10.386;2023-07-02T08:46:08;12.50;;;6.80;;
2624;SDS011;1322;53.256;10.386;2023-07-02T08:48:35;13.93;;;7.57;;
2624;SDS011;1322;53.256;10.386;2023-07-02T08:51:02;12.90;;;5.57;;
2624;SDS011;1322;53.256;10.386;2023-07-02T08:53:28;11.77;;;6.53;;
2624;SDS011;1322;53.256;10.386;2023-07-02T08:55:58;13.70;;;5.87;;
2624;SDS011;1322;53.256;10.386;2023-07-02T08:58:28;19.27;;;5.97;;
2624;SDS011;1322;53.256;10.386;2023-07-02T09:03:32;13.40;;;6.47;;
2624;SDS011;1322;53.256;10.386;2023-07-02T09:05:58;14.63;;;5.80;;
2624;SDS011;1322;53.256;10.386;2023-07-02T09:08:24;16.70;;;8.50;;
2624;SDS011;1322;53.256;10.386;2023-07-02T09:10:53;12.43;;;6.30;;
2624;SDS011;1322;53.256;10.386;2023-07-02T09:13:19;10.40;;;5.63;;
2624;SDS011;1322;53.256;10.386;2023-07-02T09:15:45;19.30;;;5.60;;
2624;SDS011;1322;53.256;10.386;2023-07-02T09:18:15;11.73;;;4.97;;
2624;SDS011;1322;53.256;10.386;2023-07-02T09:20:41;11.70;;;5.47;;
2624;SDS011;1322;53.256;10.386;2023-07-02T09:23:07;12.53;;;5.37;;
2624;SDS011;1322;53.256;10.386;2023-07-02T09:25:39;12.87;;;5.57;;
2624;SDS011;1322;53.256;10.386;2023-07-02T09:28:18;14.80;;;6.53;;
2624;SDS011;1322;53.256;10.386;2023-07-02T09:30:55;10.97;;;6.00;;
2624;SDS011;1322;53.256;10.386;2023-07-02T09:33:25;15.13;;;6.67;;
2624;SDS011;1322;53.256;10.386;2023-07-02T09:35:53;13.93;;;5.80;;
2624;SDS011;1322;53.256;10.386;2023-07-02T09:38:19;9.13;;;5.20;;
2624;SDS011;1322;53.256;10.386;2023-07-02T09:40:46;12.70;;;5.97;;
2624;SDS011;1322;53.256;10.386;2023-07-02T09:43:14;11.27;;;5.60;;
2624;SDS011;1322;53.256;10.386;2023-07-02T09:45:45;9.73;;;6.00;;
2624;SDS011;1322;53.256;10.386;2023-07-02T09:48:16;11.20;;;5.70;;
2624;SDS011;1322;53.256;10.386;2023-07-02T09:50:43;8.83;;;4.50;;
2624;SDS011;1322;53.256;10.386;2023-07-02T09:53:10;16.77;;;5.87;;
2624;SDS011;1322;53.256;10.386;2023-07-02T09:55:37;11.17;;;6.00;;
2624;SDS011;1322;53.256;10.386;2023-07-02T09:58:04;8.10;;;5.13;;
2624;SDS011;1322;53.256;10.386;2023-07-02T10:00:30;9.90;;;4.80;;
2624;SDS011;1322;53.256;10.386;2023-07-02T10:02:56;10.83;;;5.63;;
2624;SDS011;1322;53.256;10.386;2023-07-02T10:05:40;10.20;;;5.23;;
2624;SDS011;1322;53.256;10.386;2023-07-02T10:08:13;18.83;;;6.27;;
2624;SDS011;1322;53.256;10.386;2023-07-02T10:10:40;12.90;;;6.03;;
2624;SDS011;1322;53.256;10.386;2023-07-02T10:13:05;8.57;;;4.70;;
2624;SDS011;1322;53.256;10.386;2023-07-02T10:15:31;13.33;;;5.77;;
2624;SDS011;1322;53.256;10.386;2023-07-02T10:18:02;6.97;;;4.70;;
2624;SDS011;1322;53.256;10.386;2023-07-02T10:20:36;13.83;;;4.97;;
2624;SDS011;1322;53.256;10.386;2023-07-02T10:23:07;7.77;;;5.00;;
2624;SDS011;1322;53.256;10.386;2023-07-02T10:25:37;12.33;;;5.70;;
2624;SDS011;1322;53.256;10.386;2023-07-02T10:28:24;10.70;;;5.33;;
2624;SDS011;1322;53.256;10.386;2023-07-02T10:30:51;10.07;;;4.57;;
2624;SDS011;1322;53.256;10.386;2023-07-02T10:33:18;7.37;;;4.80;;
2624;SDS011;1322;53.256;10.386;2023-07-02T10:35:45;11.53;;;4.53;;
2624;SDS011;1322;53.256;10.386;2023-07-02T10:38:18;29.73;;;7.43;;
2624;SDS011;1322;53.256;10.386;2023-07-02T10:40:55;9.93;;;4.03;;
2624;SDS011;1322;53.256;10.386;2023-07-02T10:43:28;9.30;;;4.67;;
2624;SDS011;1322;53.256;10.386;2023-07-02T10:45:57;10.93;;;4.10;;
2624;SDS011;1322;53.256;10.386;2023-07-02T10:48:27;8.00;;;4.17;;
2624;SDS011;1322;53.256;10.386;2023-07-02T10:50:53;10.77;;;4.83;;
2624;SDS011;1322;53.256;10.386;2023-07-02T10:53:19;8.23;;;5.00;;
2624;SDS011;1322;53.256;10.386;2023-07-02T10:55:45;8.03;;;4.00;;
2624;SDS011;1322;53.256;10.386;2023-07-02T10:58:18;7.77;;;4.70;;
2624;SDS011;1322;53.256;10.386;2023-07-02T11:00:44;10.97;;;5.07;;
2624;SDS011;1322;53.256;10.386;2023-07-02T11:03:17;8.67;;;5.30;;
2624;SDS011;1322;53.256;10.386;2023-07-02T11:05:48;12.63;;;4.80;;
2624;SDS011;1322;53.256;10.386;2023-07-02T11:08:14;6.73;;;4.30;;
2624;SDS011;1322;53.256;10.386;2023-07-02T11:10:40;10.70;;;5.63;;
2624;SDS011;1322;53.256;10.386;2023-07-02T11:13:10;12.90;;;5.13;;
2624;SDS011;1322;53.256;10.386;2023-07-02T11:15:43;13.60;;;5.60;;
2624;SDS011;1322;53.256;10.386;2023-07-02T11:20:37;11.50;;;5.37;;
2624;SDS011;1322;53.256;10.386;2023-07-02T11:23:04;15.90;;;6.00;;
2624;SDS011;1322;53.256;10.386;2023-07-02T11:25:30;14.20;;;5.50;;
2624;SDS011;1322;53.256;10.386;2023-07-02T11:28:05;10.60;;;5.13;;
2624;SDS011;1322;53.256;10.386;2023-07-02T11:30:31;11.30;;;5.60;;
2624;SDS011;1322;53.256;10.386;2023-07-02T11:32:58;13.80;;;5.20;;
2624;SDS011;1322;53.256;10.386;2023-07-02T11:35:34;13.80;;;5.50;;
2624;SDS011;1322;53.256;10.386;2023-07-02T11:38:00;9.00;;;4.13;;
2624;SDS011;1322;53.256;10.386;2023-07-02T11:40:26;9.37;;;4.90;;
2624;SDS011;1322;53.256;10.386;2023-07-02T11:42:51;10.07;;;5.40;;
2624;SDS011;1322;53.256;10.386;2023-07-02T11:45:17;14.70;;;6.90;;
2624;SDS011;1322;53.256;10.386;2023-07-02T11:47:42;10.43;;;4.90;;
2624;SDS011;1322;53.256;10.386;2023-07-02T11:50:08;8.67;;;4.70;;
2624;SDS011;1322;53.256;10.386;2023-07-02T11:52:35;9.77;;;5.00;;
2624;SDS011;1322;53.256;10.386;2023-07-02T11:55:01;13.77;;;4.67;;
2624;SDS011;1322;53.256;10.386;2023-07-02T11:57:27;8.67;;;4.37;;
2624;SDS011;1322;53.256;10.386;2023-07-02T11:59:52;10.80;;;5.10;;
2624;SDS011;1322;53.256;10.386;2023-07-02T12:02:18;11.27;;;5.23;;
2624;SDS011;1322;53.256;10.386;2023-07-02T12:04:44;8.07;;;4.00;;
2624;SDS011;1322;53.256;10.386;2023-07-02T12:07:10;8.53;;;3.80;;
2624;SDS011;1322;53.256;10.386;2023-07-02T12:09:36;6.47;;;2.70;;
2624;SDS011;1322;53.256;10.386;2023-07-02T12:12:02;5.77;;;3.50;;
2624;SDS011;1322;53.256;10.386;2023-07-02T12:14:28;9.53;;;3.50;;
2624;SDS011;1322;53.256;10.386;2023-07-02T12:16:53;9.23;;;3.97;;
2624;SDS011;1322;53.256;10.386;2023-07-02T12:19:19;8.13;;;4.90;;
2624;SDS011;1322;53.256;10.386;2023-07-02T12:21:45;10.13;;;4.63;;
2624;SDS011;1322;53.256;10.386;2023-07-02T12:24:10;9.00;;;4.40;;
2624;SDS011;1322;53.256;10.386;2023-07-02T12:26:36;15.93;;;5.23;;
2624;SDS011;1322;53.256;10.386;2023-07-02T12:29:02;10.10;;;5.00;;
2624;SDS011;1322;53.256;10.386;2023-07-02T12:31:29;15.53;;;4.80;;
2624;SDS011;1322;53.256;10.386;2023-07-02T12:33:55;7.77;;;4.20;;
2624;SDS011;1322;53.256;10.386;2023-07-02T12:36:21;8.20;;;4.37;;
2624;SDS011;1322;53.256;10.386;2023-07-02T12:38:46;8.97;;;3.50;;
2624;SDS011;1322;53.256;10.386;2023-07-02T12:41:12;7.30;;;4.00;;
2624;SDS011;1322;53.256;10.386;2023-07-02T12:43:37;7.23;;;3.00;;
2624;SDS011;1322;53.256;10.386;2023-07-02T12:46:03;7.50;;;3.77;;
2624;SDS011;1322;53.256;10.386;2023-07-02T12:48:29;6.20;;;3.57;;
2624;SDS011;1322;53.256;10.386;2023-07-02T12:50:55;9.97;;;3.37;;
2624;SDS011;1322;53.256;10.386;2023-07-02T12:53:22;6.10;;;3.27;;
2624;SDS011;1322;53.256;10.386;2023-07-02T12:55:48;9.20;;;3.83;;
2624;SDS011;1322;53.256;10.386;2023-07-02T12:58:16;5.13;;;3.07;;
2624;SDS011;1322;53.256;10.386;2023-07-02T13:00:43;8.33;;;3.20;;
2624;SDS011;1322;53.256;10.386;2023-07-02T13:03:10;6.63;;;3.27;;
2624;SDS011;1322;53.256;10.386;2023-07-02T13:05:36;7.67;;;2.70;;
2624;SDS011;1322;53.256;10.386;2023-07-02T13:08:02;3.93;;;2.60;;
2624;SDS011;1322;53.256;10.386;2023-07-02T13:10:29;9.63;;;3.50;;
2624;SDS011;1322;53.256;10.386;2023-07-02T13:12:55;5.27;;;3.30;;
2624;SDS011;1322;53.256;10.386;2023-07-02T13:15:21;8.00;;;3.90;;
2624;SDS011;1322;53.256;10.386;2023-07-02T13:17:47;8.90;;;2.90;;
2624;SDS011;1322;53.256;10.386;2023-07-02T13:20:13;6.67;;;3.23;;
2624;SDS011;1322;53.256;10.386;2023-07-02T13:22:39;11.90;;;3.40;;
2624;SDS011;1322;53.256;10.386;2023-07-02T13:25:05;9.50;;;3.60;;
2624;SDS011;1322;53.256;10.386;2023-07-02T13:27:31;8.30;;;3.33;;
2624;SDS011;1322;53.256;10.386;2023-07-02T13:29:57;11.13;;;4.00;;
2624;SDS011;1322;53.256;10.386;2023-07-02T13:32:23;10.80;;;4.00;;
2624;SDS011;1322;53.256;10.386;2023-07-02T13:34:49;8.70;;;4.23;;
2624;SDS011;1322;53.256;10.386;2023-07-02T13:37:15;6.40;;;3.70;;
2624;SDS011;1322;53.256;10.386;2023-07-02T13:39:46;6.40;;;3.27;;
2624;SDS011;1322;53.256;10.386;2023-07-02T13:42:13;5.43;;;3.23;;
2624;SDS011;1322;53.256;10.386;2023-07-02T13:44:39;7.50;;;3.40;;
2624;SDS011;1322;53.256;10.386;2023-07-02T13:47:05;11.67;;;3.90;;
2624;SDS011;1322;53.256;10.386;2023-07-02T13:49:32;4.33;;;2.77;;
2624;SDS011;1322;53.256;10.386;2023-07-02T13:51:58;6.13;;;2.93;;
2624;SDS011;1322;53.256;10.386;2023-07-02T13:54:24;7.57;;;2.97;;
2624;SDS011;1322;53.256;10.386;2023-07-02T13:56:50;7.00;;;3.70;;
2624;SDS011;1322;53.256;10.386;2023-07-02T13:59:17;6.83;;;3.17;;
2624;SDS011;1322;53.256;10.386;2023-07-02T14:01:44;6.10;;;3.10;;
2624;SDS011;1322;53.256;10.386;2023-07-02T14:04:10;6.87;;;3.97;;
2624;SDS011;1322;53.256;10.386;2023-07-02T14:06:36;9.97;;;3.30;;
2624;SDS011;1322;53.256;10.386;2023-07-02T14:09:02;8.17;;;3.30;;
2624;SDS011;1322;53.256;10.386;2023-07-02T14:11:28;5.40;;;3.40;;
2624;SDS011;1322;53.256;10.386;2023-07-02T14:13:55;10.53;;;2.97;;
2624;SDS011;1322;53.256;10.386;2023-07-02T14:16:21;13.47;;;3.00;;
2624;SDS011;1322;53.256;10.386;2023-07-02T14:18:47;4.87;;;3.67;;
2624;SDS011;1322;53.256;10.386;2023-07-02T14:21:13;5.57;;;3.27;;
2624;SDS011;1322;53.256;10.386;2023-07-02T14:23:39;6.43;;;3.30;;
2624;SDS011;1322;53.256;10.386;2023-07-02T14:26:04;7.83;;;3.90;;
2624;SDS011;1322;53.256;10.386;2023-07-02T14:28:30;9.40;;;3.00;;
2624;SDS011;1322;53.256;10.386;2023-07-02T14:30:57;8.10;;;2.90;;
2624;SDS011;1322;53.256;10.386;2023-07-02T14:33:28;7.43;;;3.40;;
2624;SDS011;1322;53.256;10.386;2023-07-02T14:35:54;6.77;;;3.40;;
2624;SDS011;1322;53.256;10.386;2023-07-02T14:38:20;8.30;;;3.00;;
2624;SDS011;1322;53.256;10.386;2023-07-02T14:40:47;8.27;;;4.20;;
2624;SDS011;1322;53.256;10.386;2023-07-02T14:43:13;5.80;;;3.37;;
2624;SDS011;1322;53.256;10.386;2023-07-02T14:45:50;4.07;;;3.10;;
2624;SDS011;1322;53.256;10.386;2023-07-02T14:48:16;9.30;;;3.20;;
2624;SDS011;1322;53.256;10.386;2023-07-02T14:50:43;12.00;;;3.10;;
2624;SDS011;1322;53.256;10.386;2023-07-02T14:53:17;9.30;;;3.90;;
2624;SDS011;1322;53.256;10.386;2023-07-02T14:55:43;5.53;;;3.63;;
2624;SDS011;1322;53.256;10.386;2023-07-02T14:58:10;6.20;;;3.30;;